createdAt,value
2019-02-22T00:00:38.522Z,103161.98
2019-02-22T00:03:08.938Z,103159.20
2019-02-22T00:05:39.243Z,103157.28
2019-02-22T00:08:09.694Z,103163.83
2019-02-22T00:10:40.274Z,103160.75
2019-02-22T00:13:10.604Z,103164.17
2019-02-22T00:15:40.883Z,103165.45
2019-02-22T00:18:11.176Z,103159.71
2019-02-22T00:20:41.472Z,103160.48
2019-02-22T00:23:11.692Z,103168.41
2019-02-22T00:25:42.124Z,103170.14
2019-02-22T00:28:12.341Z,103172.27
2019-02-22T00:30:42.877Z,103171.84
2019-02-22T00:33:13.122Z,103182.28
2019-02-22T00:35:43.600Z,103178.81
2019-02-22T00:38:14.181Z,103183.24
2019-02-22T00:40:44.396Z,103188.48
2019-02-22T00:43:14.603Z,103187.98
2019-02-22T00:45:45.153Z,103194.53
2019-02-22T00:48:15.499Z,103197.91
2019-02-22T00:50:45.795Z,103205.84
2019-02-22T00:53:17.233Z,103209.44
2019-02-22T00:55:47.432Z,103212.94
2019-02-22T00:58:17.645Z,103208.59
2019-02-22T01:00:48.027Z,103209.44
2019-02-22T01:03:18.106Z,103211.55
2019-02-22T01:05:48.402Z,103214.13
2019-02-22T01:08:18.623Z,103216.33
2019-02-22T01:10:48.926Z,103216.25
2019-02-22T01:13:19.286Z,103217.56
2019-02-22T01:15:49.598Z,103227.27
2019-02-22T01:18:19.805Z,103223.34
2019-02-22T01:20:54.387Z,103222.03
2019-02-22T01:23:22.080Z,103230.39
2019-02-22T01:25:52.237Z,103236.98
2019-02-22T01:28:22.526Z,103224.23
2019-02-22T01:30:52.928Z,103228.23
2019-02-22T01:41:22.112Z,103231.96
2019-02-22T01:43:52.561Z,103228.18
2019-02-22T01:46:22.788Z,103222.48
2019-02-22T01:48:53.155Z,103228.53
2019-02-22T01:51:23.619Z,103238.24
2019-02-22T01:53:54.232Z,103245.26
2019-02-22T01:56:24.583Z,103249.69
2019-02-22T01:58:54.976Z,103254.08
2019-02-22T02:01:25.319Z,103250.62
2019-02-22T02:03:55.827Z,103259.05
2019-02-22T02:06:26.241Z,103255.12
2019-02-22T02:08:56.402Z,103267.84
2019-02-22T02:11:26.576Z,103270.88
2019-02-22T02:13:56.857Z,103270.46
2019-02-22T02:16:27.275Z,103279.24
2019-02-22T02:18:57.602Z,103288.06
2019-02-22T02:21:28.005Z,103295.43
2019-02-22T02:23:58.460Z,103299.28
2019-02-22T02:26:29.012Z,103301.09
2019-02-22T02:28:59.389Z,103302.48
2019-02-22T02:31:29.670Z,103300.66
2019-02-22T02:34:00.075Z,103306.80
2019-02-22T02:36:30.322Z,103303.78
2019-02-22T02:39:00.690Z,103302.48
2019-02-22T02:41:31.197Z,103307.77
2019-02-22T02:44:01.717Z,103312.19
2019-02-22T02:46:32.054Z,103305.56
2019-02-22T02:49:02.553Z,103306.80
2019-02-22T02:51:32.954Z,103307.22
2019-02-22T02:54:03.278Z,103308.06
2019-02-22T02:56:33.625Z,103307.91
2019-02-22T02:59:04.011Z,103311.02
2019-02-22T03:01:34.536Z,103311.02
2019-02-22T03:04:07.894Z,103321.50
2019-02-22T03:06:43.723Z,103317.57
2019-02-22T03:09:14.251Z,103319.64
2019-02-22T03:11:44.653Z,103325.69
2019-02-22T03:14:15.012Z,103333.97
2019-02-22T03:16:45.160Z,103328.73
2019-02-22T03:19:15.531Z,103332.20
2019-02-22T03:21:45.843Z,103332.66
2019-02-22T03:24:16.186Z,103330.89
2019-02-22T03:26:46.404Z,103336.59
2019-02-22T03:29:16.683Z,103344.53
2019-02-22T03:31:46.912Z,103348.50
2019-02-22T03:34:17.201Z,103350.16
2019-02-22T03:36:47.571Z,103365.69
2019-02-22T03:39:17.802Z,103359.53
2019-02-22T03:41:48.181Z,103373.13
2019-02-22T03:44:18.408Z,103369.67
2019-02-22T03:46:48.657Z,103370.25
2019-02-22T03:49:18.910Z,103377.77
2019-02-22T03:51:49.169Z,103379.58
2019-02-22T03:54:19.677Z,103373.45
2019-02-22T03:56:50.222Z,103368.20
2019-02-22T03:59:20.555Z,103377.77
2019-02-22T04:01:50.874Z,103379.08
2019-02-22T04:04:21.201Z,103381.20
2019-02-22T04:06:51.618Z,103393.41
2019-02-22T04:09:21.872Z,103396.45
2019-02-22T04:11:52.234Z,103390.70
2019-02-22T04:14:24.849Z,103391.89
2019-02-22T04:16:55.274Z,103401.34
2019-02-22T04:19:25.681Z,103409.20
2019-02-22T04:21:59.477Z,103409.70
2019-02-22T04:24:36.424Z,103415.42
2019-02-22T04:27:06.974Z,103408.40
2019-02-22T04:29:37.279Z,103411.98
2019-02-22T04:32:07.835Z,103414.11
2019-02-22T04:34:38.105Z,103415.84
2019-02-22T04:37:08.679Z,103423.28
2019-02-22T04:39:39.005Z,103424.25
2019-02-22T04:42:09.615Z,103422.52
2019-02-22T04:44:39.915Z,103430.80
2019-02-22T04:47:10.257Z,103431.69
2019-02-22T04:49:40.515Z,103429.06
2019-02-22T04:52:10.959Z,103431.22
2019-02-22T04:54:41.431Z,103435.57
2019-02-22T04:57:11.967Z,103428.05
2019-02-22T04:59:42.520Z,103433.17
2019-02-22T05:02:12.811Z,103433.52
2019-02-22T05:04:43.127Z,103441.80
2019-02-22T05:07:13.515Z,103426.91
2019-02-22T05:09:43.696Z,103433.80
2019-02-22T05:12:14.017Z,103428.91
2019-02-22T05:14:44.263Z,103434.95
2019-02-22T05:17:14.550Z,103433.09
2019-02-22T05:19:45.251Z,103447.50
2019-02-22T05:22:15.792Z,103454.00
2019-02-22T05:27:32.667Z,103460.68
2019-02-22T05:30:03.255Z,103457.38
2019-02-22T05:32:33.780Z,103464.40
2019-02-22T05:35:04.370Z,103469.64
2019-02-22T05:37:34.932Z,103472.59
2019-02-22T05:42:45.615Z,103478.38
2019-02-22T05:45:16.304Z,103493.85
2019-02-22T05:47:47.041Z,103488.48
2019-02-22T05:50:20.134Z,103497.31
2019-02-22T05:52:50.897Z,103502.55
2019-02-22T05:55:21.552Z,103503.44
2019-02-22T05:57:52.249Z,103509.10
2019-02-22T06:00:22.739Z,103509.91
2019-02-22T06:02:53.408Z,103508.39
2019-02-22T06:05:24.348Z,103515.41
2019-02-22T06:07:54.757Z,103517.77
2019-02-22T06:10:25.347Z,103531.63
2019-02-22T06:12:56.154Z,103529.73
2019-02-22T06:15:26.711Z,103534.97
2019-02-22T06:17:57.256Z,103534.97
2019-02-22T06:20:27.947Z,103537.67
2019-02-22T06:22:58.628Z,103540.29
2019-02-22T06:25:29.201Z,103540.71
2019-02-22T06:27:59.754Z,103548.45
2019-02-22T06:30:30.478Z,103545.83
2019-02-22T06:33:01.037Z,103557.23
2019-02-22T06:35:31.771Z,103558.55
2019-02-22T06:38:02.584Z,103561.09
2019-02-22T06:40:32.990Z,103555.76
2019-02-22T06:43:03.202Z,103562.81
2019-02-22T06:45:33.582Z,103566.23
2019-02-22T06:48:03.942Z,103567.88
2019-02-22T06:50:34.293Z,103570.50
2019-02-22T06:53:04.463Z,103570.84
2019-02-22T06:55:34.834Z,103574.77
2019-02-22T06:58:05.431Z,103573.96
2019-02-22T07:00:35.796Z,103570.84
2019-02-22T07:03:07.187Z,103569.53
2019-02-22T07:05:37.654Z,103578.78
2019-02-22T07:08:07.976Z,103578.36
2019-02-22T07:11:02.327Z,103585.55
2019-02-22T07:13:32.687Z,103594.30
2019-02-22T07:16:03.096Z,103589.19
2019-02-22T07:18:33.519Z,103592.45
2019-02-22T07:21:03.984Z,103596.09
2019-02-22T07:23:34.179Z,103606.80
2019-02-22T07:26:04.465Z,103613.52
2019-02-22T07:28:34.825Z,103613.18
2019-02-22T07:31:05.263Z,103617.72
2019-02-22T07:33:35.585Z,103617.38
2019-02-22T07:36:09.346Z,103621.48
2019-02-22T07:38:39.623Z,103622.80
2019-02-22T07:41:10.161Z,103614.09
2019-02-22T07:43:40.486Z,103618.16
2019-02-22T07:46:11.181Z,103623.65
2019-02-22T07:48:41.465Z,103636.61
2019-02-22T07:51:11.777Z,103650.77
2019-02-22T07:53:41.994Z,103653.06
2019-02-22T07:56:12.191Z,103660.92
2019-02-22T07:58:42.476Z,103662.45
2019-02-22T08:01:12.783Z,103663.98
2019-02-22T08:03:42.998Z,103668.64
2019-02-22T08:06:13.315Z,103676.77
2019-02-22T08:08:43.607Z,103682.65
2019-02-22T08:11:13.943Z,103698.27
2019-02-22T08:13:44.253Z,103706.56
2019-02-22T08:16:14.487Z,103708.20
2019-02-22T08:18:44.731Z,103714.56
2019-02-22T08:21:14.909Z,103721.84
2019-02-22T08:23:45.103Z,103728.19
2019-02-22T08:26:15.314Z,103728.88
2019-02-22T08:28:45.677Z,103738.78
2019-02-22T08:31:16.964Z,103735.73
2019-02-22T08:33:47.196Z,103753.13
2019-02-22T08:36:17.464Z,103747.75
2019-02-22T08:38:48.114Z,103756.94
2019-02-22T08:41:18.387Z,103760.03
2019-02-22T08:43:48.634Z,103770.14
2019-02-22T08:46:18.887Z,103767.44
2019-02-22T08:48:49.196Z,103765.23
2019-02-22T08:51:19.525Z,103764.14
2019-02-22T08:53:49.714Z,103766.21
2019-02-22T08:56:20.015Z,103770.03
2019-02-22T08:58:50.274Z,103773.28
2019-02-22T09:01:20.486Z,103771.34
2019-02-22T09:03:51.316Z,103770.32
2019-02-22T09:06:21.645Z,103773.62
2019-02-22T09:08:51.944Z,103781.88
2019-02-22T09:12:08.918Z,103782.97
2019-02-22T09:14:39.121Z,103790.17
2019-02-22T09:17:09.500Z,103782.13
2019-02-22T09:19:39.853Z,103789.32
2019-02-22T09:22:21.817Z,103793.50
2019-02-22T09:24:42.234Z,103787.64
2019-02-22T09:27:12.473Z,103785.98
2019-02-22T09:29:42.779Z,103789.20
2019-02-22T09:32:12.993Z,103800.55
2019-02-22T09:34:45.942Z,103801.88
2019-02-22T09:37:15.454Z,103805.71
2019-02-22T09:39:45.777Z,103810.78
2019-02-22T09:42:16.113Z,103818.09
2019-02-22T09:44:48.041Z,103821.59
2019-02-22T09:47:19.928Z,103814.59
2019-02-22T09:49:50.436Z,103814.66
2019-02-22T09:52:20.721Z,103817.91
2019-02-22T09:54:51.076Z,103816.47
2019-02-22T09:57:21.342Z,103825.51
2019-02-22T09:59:51.730Z,103825.77
2019-02-22T10:02:29.706Z,103833.96
2019-02-22T10:05:00.006Z,103834.29
2019-02-22T10:07:33.324Z,103840.77
2019-02-22T10:10:07.258Z,103844.09
2019-02-22T10:12:37.534Z,103838.11
2019-02-22T10:15:08.007Z,103839.04
2019-02-22T10:17:38.351Z,103843.17
2019-02-22T10:20:08.937Z,103848.22
2019-02-22T10:22:39.265Z,103840.86
2019-02-22T10:25:09.610Z,103844.09
2019-02-22T10:27:39.944Z,103854.38
2019-02-22T10:30:10.343Z,103850.53
2019-02-22T10:32:40.502Z,103852.03
2019-02-22T10:35:10.915Z,103852.35
2019-02-22T10:37:41.174Z,103848.75
2019-02-22T10:40:11.455Z,103850.67
2019-02-22T10:42:41.732Z,103855.41
2019-02-22T10:45:14.540Z,103862.81
2019-02-22T10:47:44.842Z,103859.30
2019-02-22T10:50:15.028Z,103859.58
2019-02-22T10:52:45.290Z,103860.61
2019-02-22T10:55:15.656Z,103868.43
2019-02-22T10:57:45.851Z,103874.84
2019-02-22T11:00:16.256Z,103877.54
2019-02-22T11:02:46.442Z,103874.48
2019-02-22T11:05:16.594Z,103873.50
2019-02-22T11:07:47.001Z,103883.50
2019-02-22T11:10:21.473Z,103883.20
2019-02-22T11:12:51.780Z,103884.95
2019-02-22T11:15:22.018Z,103884.63
2019-02-22T11:17:52.199Z,103882.28
2019-02-22T11:20:22.532Z,103881.48
2019-02-22T11:22:52.675Z,103882.97
2019-02-22T11:25:23.029Z,103888.61
2019-02-22T11:27:53.320Z,103888.31
2019-02-22T11:30:23.489Z,103891.20
2019-02-22T11:32:58.574Z,103885.27
2019-02-22T11:35:28.857Z,103882.78
2019-02-22T11:37:58.977Z,103883.82
2019-02-22T11:40:29.583Z,103877.22
2019-02-22T11:43:01.218Z,103891.03
2019-02-22T11:45:34.759Z,103884.28
2019-02-22T11:48:09.245Z,103883.61
2019-02-22T11:50:37.153Z,103880.20
2019-02-22T11:53:07.502Z,103878.11
2019-02-22T11:55:37.884Z,103880.41
2019-02-22T11:58:08.117Z,103880.61
2019-02-22T12:00:38.446Z,103877.96
2019-02-22T12:03:21.219Z,103883.78
2019-02-22T12:05:40.679Z,103883.66
2019-02-22T12:08:10.908Z,103892.25
2019-02-22T12:10:41.111Z,103890.05
2019-02-22T12:13:11.303Z,103887.81
2019-02-22T12:15:41.608Z,103897.51
2019-02-22T12:18:11.790Z,103900.89
2019-02-22T12:20:42.076Z,103905.41
2019-02-22T12:23:12.295Z,103904.77
2019-02-22T12:25:44.568Z,103909.73
2019-02-22T12:28:14.373Z,103917.87
2019-02-22T12:30:44.539Z,103914.19
2019-02-22T12:33:14.792Z,103910.17
2019-02-22T12:35:46.251Z,103922.09
2019-02-22T12:38:16.737Z,103921.16
2019-02-22T12:40:46.808Z,103913.22
2019-02-22T12:43:17.156Z,103917.44
2019-02-22T12:45:47.475Z,103924.48
2019-02-22T12:48:17.798Z,103924.13
2019-02-22T12:50:47.959Z,103922.45
2019-02-22T12:53:21.238Z,103917.53
2019-02-22T12:55:51.538Z,103919.38
2019-02-22T12:58:21.639Z,103923.87
2019-02-22T13:00:51.906Z,103922.47
2019-02-22T13:03:22.111Z,103917.75
2019-02-22T13:05:52.348Z,103921.37
2019-02-22T13:08:22.474Z,103929.19
2019-02-22T13:10:52.704Z,103930.19
2019-02-22T13:13:22.927Z,103935.09
2019-02-22T13:15:53.070Z,103943.48
2019-02-22T13:18:23.224Z,103952.01
2019-02-22T13:20:53.379Z,103958.41
2019-02-22T13:23:23.689Z,103948.58
2019-02-22T13:25:53.861Z,103958.33
2019-02-22T13:28:24.096Z,103957.14
2019-02-22T13:30:54.338Z,103937.28
2019-02-22T13:33:24.496Z,103957.50
2019-02-22T13:35:54.736Z,103962.48
2019-02-22T13:38:25.067Z,103967.20
2019-02-22T13:40:55.162Z,103961.75
2019-02-22T13:43:25.453Z,103957.25
2019-02-22T13:45:55.557Z,103960.78
2019-02-22T13:48:25.692Z,103960.97
2019-02-22T13:50:55.931Z,103958.73
2019-02-22T13:53:26.228Z,103959.54
2019-02-22T13:55:56.455Z,103949.28
2019-02-22T13:58:26.555Z,103953.55
2019-02-22T14:00:56.763Z,103947.20
2019-02-22T14:03:26.905Z,103953.16
2019-02-22T14:05:57.172Z,103958.57
2019-02-22T14:08:27.471Z,103965.37
2019-02-22T14:10:57.781Z,103959.99
2019-02-22T14:13:28.084Z,103959.02
2019-02-22T14:15:58.313Z,103963.36
2019-02-22T14:18:28.819Z,103966.72
2019-02-22T14:21:01.218Z,103961.72
2019-02-22T14:23:31.632Z,103962.19
2019-02-22T14:26:01.917Z,103897.10
2019-02-22T14:28:32.277Z,103962.69
2019-02-22T14:31:02.770Z,103952.39
2019-02-22T14:33:33.014Z,103947.59
2019-02-22T14:36:04.802Z,103944.67
2019-02-22T14:38:36.375Z,103936.82
2019-02-22T14:41:10.152Z,103940.89
2019-02-22T14:43:40.893Z,103942.20
2019-02-22T14:46:11.314Z,103939.07
2019-02-22T14:48:43.781Z,103945.84
2019-02-22T14:51:15.271Z,103942.25
2019-02-22T14:53:45.902Z,103951.45
2019-02-22T14:56:16.570Z,103947.47
2019-02-22T14:58:47.049Z,103949.98
2019-02-22T15:01:17.738Z,103955.27
2019-02-22T15:03:48.400Z,103956.31
2019-02-22T15:06:19.063Z,103967.45
2019-02-22T15:08:49.740Z,103977.85
2019-02-22T15:11:20.362Z,103979.94
2019-02-22T15:13:51.282Z,103981.72
2019-02-22T15:16:43.515Z,103996.55
2019-02-22T15:19:14.115Z,104005.11
2019-02-22T15:21:44.665Z,104009.02
2019-02-22T15:24:15.286Z,104008.25
2019-02-22T15:26:46.617Z,104010.33
2019-02-22T15:29:17.284Z,104018.63
2019-02-22T15:31:48.085Z,104017.88
2019-02-22T15:34:18.702Z,104018.09
2019-02-22T15:36:50.640Z,104007.36
2019-02-22T15:39:21.256Z,104002.36
2019-02-22T15:41:51.761Z,103985.48
2019-02-22T15:44:22.364Z,103982.56
2019-02-22T15:46:53.951Z,103973.41
2019-02-22T15:49:24.578Z,103961.78
2019-02-22T15:51:55.000Z,103961.10
2019-02-22T15:54:25.595Z,103966.83
2019-02-22T15:56:56.309Z,103975.26
2019-02-22T15:59:26.979Z,103987.25
2019-02-22T16:01:57.674Z,103982.34
2019-02-22T16:04:34.079Z,103979.23
2019-02-22T16:07:04.674Z,103975.85
2019-02-22T16:09:42.013Z,103992.04
2019-02-22T16:12:22.847Z,104019.17
2019-02-22T16:14:53.784Z,104036.71
2019-02-22T16:17:26.538Z,104037.89
2019-02-22T16:19:57.389Z,104033.36
2019-02-22T16:22:29.875Z,104021.81
2019-02-22T16:25:03.724Z,104027.27
2019-02-22T16:27:36.038Z,104043.58
2019-02-22T16:30:27.050Z,104043.27
2019-02-22T16:33:03.688Z,104045.52
2019-02-22T16:35:34.508Z,104047.69
2019-02-22T16:38:10.327Z,104052.86
2019-02-22T16:40:42.933Z,104062.58
2019-02-22T16:43:16.955Z,104061.42
2019-02-22T16:45:47.856Z,104057.25
2019-02-22T16:48:19.653Z,104054.40
2019-02-22T16:50:50.270Z,104059.00
2019-02-22T16:53:20.701Z,104060.50
2019-02-22T16:55:51.214Z,104060.36
2019-02-22T16:58:21.792Z,104047.41
2019-02-22T17:00:52.386Z,104036.92
2019-02-22T17:03:23.111Z,104049.20
2019-02-22T17:05:53.593Z,104056.46
2019-02-22T17:08:24.181Z,104048.83
2019-02-22T17:10:54.651Z,104035.55
2019-02-22T17:13:25.147Z,104039.82
2019-02-22T17:15:55.579Z,104055.90
2019-02-22T17:18:25.918Z,104066.81
2019-02-22T17:20:57.860Z,104068.45
2019-02-22T17:23:29.552Z,104060.40
2019-02-22T17:25:59.828Z,104068.13
2019-02-22T17:28:32.640Z,104076.83
2019-02-22T17:31:02.911Z,104081.98
2019-02-22T17:33:33.165Z,104065.67
2019-02-22T17:36:03.441Z,104067.73
2019-02-22T17:38:33.853Z,104071.06
2019-02-22T17:41:04.331Z,104068.29
2019-02-22T17:43:34.594Z,104070.77
2019-02-22T17:46:04.859Z,104076.01
2019-02-22T17:48:35.139Z,104070.34
2019-02-22T17:51:05.285Z,104066.17
2019-02-22T17:53:35.802Z,104074.36
2019-02-22T17:56:07.127Z,104080.83
2019-02-22T17:58:37.398Z,104091.31
2019-02-22T18:01:09.141Z,104099.60
2019-02-22T18:03:39.396Z,104092.56
2019-02-22T18:06:12.227Z,104075.42
2019-02-22T18:08:44.118Z,104074.86
2019-02-22T18:11:14.490Z,104077.29
2019-02-22T18:13:44.582Z,104090.25
2019-02-22T18:16:14.798Z,104083.12
2019-02-22T18:18:45.091Z,104089.58
2019-02-22T18:21:15.276Z,104098.19
2019-02-22T18:23:45.528Z,104095.89
2019-02-22T18:26:15.663Z,104091.95
2019-02-22T18:28:45.872Z,104087.45
2019-02-22T18:31:16.018Z,104089.91
2019-02-22T18:33:46.251Z,104089.02
2019-02-22T18:36:16.363Z,104088.83
2019-02-22T18:38:46.517Z,104097.53
2019-02-22T18:41:16.711Z,104097.43
2019-02-22T18:43:46.954Z,104102.20
2019-02-22T18:46:17.741Z,104112.02
2019-02-22T18:48:48.372Z,104109.20
2019-02-22T18:51:18.990Z,104105.27
2019-02-22T18:53:49.515Z,104092.89
2019-02-22T18:56:20.301Z,104088.64
2019-02-22T18:58:52.153Z,104089.22
2019-02-22T19:01:23.026Z,104094.14
2019-02-22T19:03:53.707Z,104106.73
2019-02-22T19:06:24.265Z,104095.58
2019-02-22T19:08:54.871Z,104099.19
2019-02-22T19:11:25.508Z,104098.20
2019-02-22T19:13:56.017Z,104105.90
2019-02-22T19:16:26.772Z,104108.84
2019-02-22T19:18:57.496Z,104109.35
2019-02-22T19:21:28.652Z,104114.91
2019-02-22T19:24:00.134Z,104113.09
2019-02-22T19:26:30.756Z,104110.78
2019-02-22T19:31:26.699Z,104121.20
2019-02-22T19:33:57.266Z,104120.30
2019-02-22T19:36:27.862Z,104126.78
2019-02-22T19:38:58.360Z,104127.89
2019-02-22T19:41:28.803Z,104124.63
2019-02-22T19:43:59.227Z,104130.98
2019-02-22T19:46:29.822Z,104134.42
2019-02-22T19:49:00.868Z,104135.54
2019-02-22T19:51:31.420Z,104135.47
2019-02-22T19:54:01.939Z,104126.20
2019-02-22T19:56:32.426Z,104133.23
2019-02-22T19:59:03.810Z,104131.44
2019-02-22T20:01:34.441Z,104131.92
2019-02-22T20:04:04.975Z,104127.83
2019-02-22T20:06:35.608Z,104135.37
2019-02-22T20:09:08.898Z,104133.58
2019-02-22T20:11:39.441Z,104134.89
2019-02-22T20:14:09.874Z,104134.38
2019-02-22T20:16:40.468Z,104129.45
2019-02-22T20:19:11.166Z,104130.59
2019-02-22T20:21:41.650Z,104115.82
2019-02-22T20:24:12.396Z,104124.67
2019-02-22T20:26:42.973Z,104133.36
2019-02-22T20:29:13.559Z,104133.47
2019-02-22T20:31:43.987Z,104142.84
2019-02-22T20:34:14.390Z,104155.94
2019-02-22T20:36:45.001Z,104156.31
2019-02-22T20:39:15.740Z,104165.41
2019-02-22T20:41:46.175Z,104181.61
2019-02-22T20:44:16.727Z,104180.44
2019-02-22T20:46:47.357Z,104177.98
2019-02-22T20:49:18.012Z,104167.45
2019-02-22T20:51:48.564Z,104176.98
2019-02-22T20:54:19.065Z,104163.55
2019-02-22T20:56:49.656Z,104172.72
2019-02-22T20:59:20.464Z,104171.92
2019-02-22T21:01:51.204Z,104174.95
2019-02-22T21:04:21.908Z,104172.86
2019-02-22T21:06:52.452Z,104168.59
2019-02-22T21:09:23.133Z,104179.84
2019-02-22T21:11:53.761Z,104177.95
2019-02-22T21:14:25.191Z,104184.08
2019-02-22T21:16:55.812Z,104177.84
2019-02-22T21:19:27.305Z,104185.41
2019-02-22T21:21:57.783Z,104179.42
2019-02-22T21:24:28.647Z,104174.10
2019-02-22T21:26:59.224Z,104178.28
2019-02-22T21:29:29.803Z,104171.17
2019-02-22T21:32:00.333Z,104170.09
2019-02-22T21:34:30.788Z,104165.09
2019-02-22T21:37:01.301Z,104165.28
2019-02-22T21:39:31.701Z,104170.53
2019-02-22T21:42:02.071Z,104170.36
2019-02-22T21:44:32.581Z,104166.75
2019-02-22T21:47:03.118Z,104158.42
2019-02-22T21:49:33.950Z,104159.33
2019-02-22T21:52:04.567Z,104164.55
2019-02-22T21:54:35.081Z,104159.33
2019-02-22T21:57:06.579Z,104156.56
2019-02-22T21:59:37.128Z,104159.29
2019-02-22T22:02:07.616Z,104153.50
2019-02-22T22:04:38.411Z,104165.41
2019-02-22T22:07:08.944Z,104154.47
2019-02-22T22:09:42.211Z,104159.39
2019-02-22T22:12:12.661Z,104160.69
2019-02-22T22:14:43.318Z,104160.56
2019-02-22T22:17:13.966Z,104161.78
2019-02-22T22:19:44.292Z,104160.17
2019-02-22T22:22:14.563Z,104154.00
2019-02-22T22:24:44.729Z,104155.30
2019-02-22T22:27:14.841Z,104159.71
2019-02-22T22:29:44.913Z,104146.82
2019-02-22T22:32:15.089Z,104164.72
2019-02-22T22:34:45.319Z,104166.08
2019-02-22T22:37:15.543Z,104157.94
2019-02-22T22:39:45.815Z,104167.16
2019-02-22T22:42:15.958Z,104169.16
2019-02-22T22:44:46.091Z,104168.02
2019-02-22T22:47:16.272Z,104165.09
2019-02-22T22:49:46.478Z,104166.61
2019-02-22T22:52:16.568Z,104168.61
2019-02-22T22:54:46.703Z,104166.45
2019-02-22T22:57:16.872Z,104177.98
2019-02-22T22:59:47.066Z,104173.84
2019-02-22T23:02:17.297Z,104171.84
2019-02-22T23:04:47.437Z,104171.11
2019-02-22T23:07:17.712Z,104180.31
2019-02-22T23:09:47.839Z,104178.66
2019-02-22T23:12:17.931Z,104175.10
2019-02-22T23:14:48.154Z,104172.98
2019-02-22T23:17:18.296Z,104171.23
2019-02-22T23:19:48.417Z,104173.38
2019-02-22T23:22:18.579Z,104172.55
2019-02-22T23:24:48.640Z,104182.52
2019-02-22T23:27:18.820Z,104184.58
2019-02-22T23:29:48.965Z,104174.88
2019-02-22T23:32:19.039Z,104173.92
2019-02-22T23:34:49.194Z,104182.58
2019-02-22T23:37:19.332Z,104175.52
2019-02-22T23:39:49.610Z,104178.18
2019-02-22T23:42:19.793Z,104177.71
2019-02-22T23:44:50.031Z,104168.53
2019-02-22T23:47:20.123Z,104183.41
2019-02-22T23:49:50.326Z,104182.56
2019-02-22T23:52:20.560Z,104174.69
2019-02-22T23:54:50.769Z,104169.38
2019-02-22T23:57:20.838Z,104166.30
2019-02-22T23:59:50.923Z,104163.25
